createdAt,value
2023-03-15T00:00:02.003Z,5.50
2023-03-15T00:02:37.770Z,5.20
2023-03-15T00:04:34.810Z,5.40
2023-03-15T00:06:28.042Z,5.10
2023-03-15T00:08:22.014Z,5.00
2023-03-15T00:10:15.167Z,4.70
2023-03-15T00:12:08.847Z,4.70
2023-03-15T00:14:02.657Z,5.40
2023-03-15T00:16:03.576Z,4.00
2023-03-15T00:17:56.891Z,5.20
2023-03-15T00:19:50.144Z,4.20
2023-03-15T00:21:43.810Z,4.90
2023-03-15T00:23:36.960Z,4.60
2023-03-15T00:25:30.526Z,4.10
2023-03-15T00:27:23.577Z,5.00
2023-03-15T00:29:16.626Z,3.90
2023-03-15T00:31:18.840Z,3.70
2023-03-15T00:33:13.961Z,4.20
2023-03-15T00:35:07.658Z,3.80
2023-03-15T00:37:02.457Z,4.20
2023-03-15T00:38:56.463Z,4.20
2023-03-15T00:40:49.477Z,4.00
2023-03-15T00:42:42.425Z,3.50
2023-03-15T00:44:35.373Z,3.60
2023-03-15T00:46:28.621Z,3.60
2023-03-15T00:48:23.314Z,3.80
2023-03-15T00:50:16.672Z,3.30
2023-03-15T00:52:09.824Z,4.10
2023-03-15T00:54:03.386Z,3.60
2023-03-15T00:55:56.440Z,3.70
2023-03-15T00:57:49.499Z,3.40
2023-03-15T00:59:45.097Z,4.00
2023-03-15T01:01:38.789Z,4.00
2023-03-15T01:03:31.927Z,3.80
2023-03-15T01:05:26.510Z,3.80
2023-03-15T01:07:19.514Z,3.90
2023-03-15T01:09:12.504Z,3.70
2023-03-15T01:11:08.375Z,3.70
2023-03-15T01:13:01.370Z,3.90
2023-03-15T01:14:54.416Z,3.80
2023-03-15T01:16:49.004Z,3.40
2023-03-15T01:18:42.973Z,3.60
2023-03-15T01:20:36.030Z,3.50
2023-03-15T01:22:29.074Z,3.90
2023-03-15T01:24:22.125Z,3.10
2023-03-15T01:26:18.060Z,3.00
2023-03-15T01:28:11.097Z,3.40
2023-03-15T01:30:05.168Z,3.60
2023-03-15T01:31:59.556Z,3.60
2023-03-15T01:33:54.047Z,3.90
2023-03-15T01:35:47.657Z,3.30
2023-03-15T01:37:41.366Z,3.70
2023-03-15T01:39:34.429Z,3.10
2023-03-15T01:41:27.668Z,3.00
2023-03-15T01:43:23.745Z,3.60
2023-03-15T01:45:53.505Z,3.10
2023-03-15T01:47:46.963Z,3.00
2023-03-15T01:49:40.428Z,2.80
2023-03-15T01:52:02.760Z,3.40
2023-03-15T01:54:10.522Z,2.90
2023-03-15T01:56:05.453Z,3.00
2023-03-15T01:58:07.029Z,2.70
2023-03-15T02:00:12.169Z,3.20
2023-03-15T02:02:26.420Z,3.50
2023-03-15T02:04:25.632Z,3.20
2023-03-15T02:06:20.575Z,3.30
2023-03-15T02:08:19.069Z,4.00
2023-03-15T02:10:15.281Z,3.20
2023-03-15T02:12:11.062Z,3.20
2023-03-15T02:14:05.797Z,4.80
2023-03-15T02:16:00.404Z,3.10
2023-03-15T02:18:00.995Z,3.60
2023-03-15T02:20:27.575Z,3.50
2023-03-15T02:22:38.912Z,3.10
2023-03-15T02:24:55.721Z,2.70
2023-03-15T02:28:46.889Z,3.40
2023-03-15T02:30:40.911Z,3.10
2023-03-15T02:32:34.500Z,2.70
2023-03-15T02:34:27.538Z,3.70
2023-03-15T02:36:24.273Z,3.30
2023-03-15T02:38:18.137Z,3.00
2023-03-15T02:40:21.264Z,2.70
2023-03-15T02:42:14.889Z,3.00
2023-03-15T02:44:28.224Z,3.60
2023-03-15T02:46:22.523Z,3.30
2023-03-15T02:48:17.247Z,2.60
2023-03-15T02:50:11.255Z,2.80
2023-03-15T02:52:04.887Z,3.40
2023-03-15T02:53:59.509Z,3.70
2023-03-15T02:55:52.457Z,3.10
2023-03-15T02:57:46.023Z,3.00
2023-03-15T02:59:39.496Z,3.00
2023-03-15T03:01:32.546Z,3.60
2023-03-15T03:03:25.592Z,3.40
2023-03-15T03:05:19.294Z,2.90
2023-03-15T03:07:12.503Z,3.00
2023-03-15T03:09:13.253Z,3.70
2023-03-15T03:11:07.625Z,3.20
2023-03-15T03:13:01.593Z,2.70
2023-03-15T03:15:00.100Z,3.40
2023-03-15T03:16:53.255Z,2.70
2023-03-15T03:18:46.234Z,3.10
2023-03-15T03:20:39.623Z,3.10
2023-03-15T03:22:34.001Z,3.00
2023-03-15T03:24:27.060Z,3.10
2023-03-15T03:26:20.698Z,3.60
2023-03-15T03:28:14.691Z,4.50
2023-03-15T03:30:12.443Z,3.90
2023-03-15T03:32:08.160Z,3.90
2023-03-15T03:34:01.111Z,4.70
2023-03-15T03:36:02.313Z,4.50
2023-03-15T03:37:55.445Z,5.20
2023-03-15T03:39:53.979Z,5.40
2023-03-15T03:41:47.029Z,5.70
2023-03-15T03:43:40.594Z,5.90
2023-03-15T03:45:34.258Z,5.40
2023-03-15T03:47:27.716Z,4.60
2023-03-15T03:49:21.177Z,5.10
2023-03-15T03:51:14.230Z,5.00
2023-03-15T03:53:07.284Z,5.10
2023-03-15T03:55:00.844Z,5.40
2023-03-15T03:56:53.889Z,4.90
2023-03-15T03:58:48.848Z,5.00
2023-03-15T04:00:54.416Z,3.90
2023-03-15T04:02:47.908Z,5.10
2023-03-15T04:04:42.428Z,4.40
2023-03-15T04:06:46.034Z,4.50
2023-03-15T04:08:41.701Z,4.00
2023-03-15T04:10:37.300Z,4.00
2023-03-15T04:12:31.283Z,4.40
2023-03-15T04:14:25.551Z,4.70
2023-03-15T04:16:20.005Z,3.60
2023-03-15T04:18:33.480Z,5.20
2023-03-15T04:20:27.539Z,4.50
2023-03-15T04:22:20.802Z,4.10
2023-03-15T04:24:34.834Z,4.90
2023-03-15T04:26:48.159Z,7.60
2023-03-15T04:28:58.802Z,5.00
2023-03-15T04:31:18.107Z,5.40
2023-03-15T04:33:40.634Z,5.10
2023-03-15T04:35:35.325Z,4.40
2023-03-15T04:37:48.547Z,4.00
2023-03-15T04:40:07.210Z,4.70
2023-03-15T04:42:12.950Z,3.80
2023-03-15T04:44:26.795Z,4.90
2023-03-15T04:46:35.742Z,3.90
2023-03-15T04:48:42.587Z,4.80
2023-03-15T04:51:01.033Z,5.10
2023-03-15T04:53:14.764Z,5.30
2023-03-15T04:55:22.562Z,5.10
2023-03-15T04:57:34.457Z,5.30
2023-03-15T04:59:39.946Z,4.30
2023-03-15T05:01:50.159Z,4.30
2023-03-15T05:04:15.355Z,4.40
2023-03-15T05:06:14.035Z,4.40
2023-03-15T05:08:15.656Z,8.90
2023-03-15T05:10:24.004Z,14.70
2023-03-15T05:12:49.625Z,8.30
2023-03-15T05:15:02.894Z,17.00
2023-03-15T05:16:58.656Z,39.10
2023-03-15T05:19:11.366Z,71.30
2023-03-15T05:21:28.271Z,59.80
2023-03-15T05:23:47.946Z,51.70
2023-03-15T05:25:56.482Z,39.60
2023-03-15T05:28:09.787Z,19.40
2023-03-15T05:30:16.463Z,17.30
2023-03-15T05:32:34.654Z,18.30
2023-03-15T05:34:42.955Z,25.10
2023-03-15T05:36:53.262Z,27.40
2023-03-15T05:39:03.412Z,16.40
2023-03-15T05:41:18.324Z,8.40
2023-03-15T05:43:32.009Z,21.60
2023-03-15T05:46:03.834Z,12.70
2023-03-15T05:47:59.478Z,10.50
2023-03-15T05:50:00.936Z,11.80
2023-03-15T05:52:20.087Z,14.00
2023-03-15T05:54:23.273Z,14.20
2023-03-15T05:56:28.514Z,22.70
2023-03-15T05:58:42.050Z,20.40
2023-03-15T06:01:04.173Z,10.60
2023-03-15T06:03:13.450Z,10.80
2023-03-15T06:05:20.093Z,12.90
2023-03-15T06:07:13.642Z,7.90
2023-03-15T06:09:06.792Z,8.60
2023-03-15T06:11:00.913Z,11.70
2023-03-15T06:12:55.542Z,9.50
2023-03-15T06:14:49.315Z,14.50
2023-03-15T06:16:42.555Z,21.40
2023-03-15T06:18:35.726Z,16.80
2023-03-15T06:20:28.779Z,17.90
2023-03-15T06:22:24.592Z,18.10
2023-03-15T06:24:21.634Z,17.90
2023-03-15T06:26:15.401Z,16.30
2023-03-15T06:28:08.553Z,11.20
2023-03-15T06:30:02.886Z,12.80
2023-03-15T06:31:55.987Z,12.30
2023-03-15T06:33:50.176Z,13.70
2023-03-15T06:35:43.326Z,14.10
2023-03-15T06:37:36.331Z,12.20
2023-03-15T06:39:29.622Z,15.40
2023-03-15T06:41:23.089Z,14.00
2023-03-15T06:43:19.776Z,14.30
2023-03-15T06:45:13.276Z,16.10
2023-03-15T06:47:06.741Z,16.30
2023-03-15T06:48:59.893Z,12.30
2023-03-15T06:50:53.765Z,17.50
2023-03-15T06:52:46.813Z,18.20
2023-03-15T06:54:39.969Z,13.80
2023-03-15T06:56:37.500Z,13.40
2023-03-15T06:58:30.988Z,10.70
2023-03-15T07:00:24.386Z,11.50
2023-03-15T07:02:18.902Z,12.10
2023-03-15T07:04:12.326Z,10.10
2023-03-15T07:06:05.542Z,11.20
2023-03-15T07:07:58.898Z,9.80
2023-03-15T07:09:52.560Z,9.60
2023-03-15T07:11:46.847Z,9.40
2023-03-15T07:13:39.896Z,6.50
2023-03-15T07:15:32.948Z,8.10
2023-03-15T07:17:25.981Z,9.20
2023-03-15T07:19:19.053Z,8.60
2023-03-15T07:21:12.209Z,13.00
2023-03-15T07:23:05.678Z,11.80
2023-03-15T07:24:58.712Z,9.90
2023-03-15T07:26:56.402Z,10.60
2023-03-15T07:28:49.434Z,9.40
2023-03-15T07:30:42.576Z,10.20
2023-03-15T07:32:35.624Z,7.70
2023-03-15T07:34:28.788Z,6.90
2023-03-15T07:36:22.354Z,7.50
2023-03-15T10:05:56.246Z,6.70
2023-03-15T10:07:49.412Z,4.10
2023-03-15T10:09:43.805Z,5.30
2023-03-15T10:11:53.689Z,4.70
2023-03-15T10:14:16.577Z,4.30
2023-03-15T10:16:33.845Z,3.80
2023-03-15T10:18:47.529Z,3.70
2023-03-15T10:20:52.466Z,3.60
2023-03-15T10:23:09.883Z,3.60
2023-03-15T10:25:18.531Z,3.80
2023-03-15T10:27:22.639Z,3.80
2023-03-15T10:29:20.164Z,4.10
2023-03-15T10:31:25.696Z,4.70
2023-03-15T10:33:34.081Z,4.40
2023-03-15T10:35:27.089Z,4.30
2023-03-15T10:37:20.209Z,4.50
2023-03-15T10:39:14.190Z,3.40
2023-03-15T10:41:08.780Z,5.60
2023-03-15T10:43:01.925Z,5.30
2023-03-15T10:44:55.279Z,3.70
2023-03-15T10:47:21.916Z,3.10
2023-03-15T10:49:16.505Z,4.30
2023-03-15T10:51:27.168Z,4.40
2023-03-15T10:53:25.746Z,3.40
2023-03-15T10:55:32.335Z,6.80
2023-03-15T10:57:29.150Z,7.40
2023-03-15T10:59:24.971Z,6.40
2023-03-15T11:01:34.689Z,5.50
2023-03-15T11:03:28.844Z,5.20
2023-03-15T11:05:22.043Z,4.20
2023-03-15T11:07:15.089Z,5.60
2023-03-15T11:09:14.680Z,5.30
2023-03-15T11:11:08.973Z,3.20
2023-03-15T11:13:22.115Z,3.00
2023-03-15T11:15:16.782Z,5.00
2023-03-15T11:17:26.523Z,3.00
2023-03-15T11:19:32.528Z,3.40
2023-03-15T11:21:33.752Z,2.50
2023-03-15T11:23:31.480Z,2.50
2023-03-15T11:25:31.406Z,2.80
2023-03-15T11:27:28.768Z,2.90
2023-03-15T11:29:29.794Z,2.70
2023-03-15T11:31:27.320Z,2.70
2023-03-15T11:33:36.220Z,2.50
2023-03-15T11:35:38.889Z,2.50
2023-03-15T11:37:45.817Z,2.60
2023-03-15T11:40:01.737Z,2.40
2023-03-15T11:42:11.034Z,2.50
2023-03-15T11:44:27.533Z,3.40
2023-03-15T11:46:32.257Z,3.30
2023-03-15T11:48:36.512Z,2.60
2023-03-15T11:50:54.507Z,2.50
2023-03-15T11:52:49.798Z,2.80
2023-03-15T11:54:45.969Z,2.40
2023-03-15T11:56:57.644Z,2.30
2023-03-15T11:59:22.162Z,2.50
2023-03-15T12:01:26.519Z,2.70
2023-03-15T12:03:30.581Z,2.70
2023-03-15T12:05:45.496Z,2.70
2023-03-15T12:07:58.854Z,3.20
2023-03-15T12:10:03.758Z,2.50
2023-03-15T12:11:59.982Z,2.60
2023-03-15T12:13:58.382Z,2.20
2023-03-15T12:15:52.554Z,2.20
2023-03-15T12:17:55.513Z,2.30
2023-03-15T12:19:48.996Z,2.60
2023-03-15T12:21:46.248Z,3.00
2023-03-15T12:23:43.582Z,2.60
2023-03-15T12:26:04.027Z,2.60
2023-03-15T12:28:00.379Z,2.60
2023-03-15T12:30:05.652Z,2.70
2023-03-15T12:32:21.028Z,2.70
2023-03-15T12:34:23.268Z,3.40
2023-03-15T12:36:21.718Z,2.60
2023-03-15T12:38:23.685Z,2.60
2023-03-15T12:40:17.066Z,3.20
2023-03-15T12:42:33.780Z,2.70
2023-03-15T12:44:33.173Z,2.90
2023-03-15T12:46:44.248Z,2.70
2023-03-15T12:49:07.190Z,3.30
2023-03-15T12:51:04.454Z,4.80
2023-03-15T12:53:00.772Z,3.70
2023-03-15T12:55:14.385Z,4.40
2023-03-15T12:57:21.175Z,3.30
2023-03-15T12:59:23.871Z,4.10
2023-03-15T13:01:18.590Z,4.60
2023-03-15T13:03:16.522Z,3.70
2023-03-15T13:07:21.856Z,4.80
2023-03-15T13:09:36.210Z,3.10
2023-03-15T13:11:55.686Z,3.20
2023-03-15T13:14:07.462Z,2.50
2023-03-15T13:16:17.555Z,2.90
2023-03-15T13:18:23.784Z,2.40
2023-03-15T13:20:25.835Z,3.10
2023-03-15T13:22:41.317Z,3.10
2023-03-15T13:24:53.306Z,4.10
2023-03-15T13:27:06.332Z,3.60
2023-03-15T13:29:27.468Z,3.30
2023-03-15T13:31:30.654Z,2.60
2023-03-15T13:33:31.758Z,4.20
2023-03-15T13:35:24.937Z,6.40
2023-03-15T13:37:25.815Z,7.20
2023-03-15T13:39:25.892Z,8.50
2023-03-15T13:41:30.512Z,7.70
2023-03-15T13:43:30.951Z,8.50
2023-03-15T13:45:24.068Z,6.00
2023-03-15T13:47:23.948Z,7.40
2023-03-15T13:49:18.371Z,7.30
2023-03-15T13:51:31.324Z,5.60
2023-03-15T13:53:39.446Z,7.60
2023-03-15T13:55:40.043Z,5.20
2023-03-15T13:57:33.903Z,6.80
2023-03-15T13:59:40.821Z,8.80
2023-03-15T14:01:39.010Z,8.90
2023-03-15T14:03:32.336Z,7.50
2023-03-15T14:05:29.000Z,7.10
2023-03-15T14:07:25.248Z,5.90
2023-03-15T14:09:24.063Z,6.00
2023-03-15T14:11:37.163Z,5.40
2023-03-15T14:13:34.262Z,4.00
2023-03-15T14:15:37.212Z,4.20
2023-03-15T14:17:31.703Z,3.50
2023-03-15T14:19:31.484Z,4.70
2023-03-15T14:21:32.317Z,4.80
2023-03-15T14:23:27.662Z,4.00
2023-03-15T14:25:22.510Z,4.10
2023-03-15T14:27:26.577Z,4.30
2023-03-15T14:29:28.232Z,3.50
2023-03-15T14:31:24.756Z,3.10
2023-03-15T14:33:29.217Z,3.30
2023-03-15T14:35:25.014Z,14.70
2023-03-15T14:37:40.822Z,14.90
2023-03-15T14:39:43.353Z,21.60
2023-03-15T14:41:41.229Z,8.00
2023-03-15T14:43:34.917Z,6.40
2023-03-15T14:45:29.055Z,7.00
2023-03-15T14:47:23.114Z,5.10
2023-03-15T14:49:25.335Z,5.10
2023-03-15T14:51:21.672Z,6.40
2023-03-15T14:53:18.108Z,5.50
2023-03-15T14:55:18.311Z,4.90
2023-03-15T14:57:11.664Z,7.10
2023-03-15T14:59:12.422Z,6.50
2023-03-15T15:01:05.585Z,4.80
2023-03-15T15:02:59.007Z,6.20
2023-03-15T15:04:52.265Z,8.90
2023-03-15T15:06:50.954Z,7.90
2023-03-15T15:08:47.267Z,6.70
2023-03-15T15:10:42.161Z,14.10
2023-03-15T15:12:35.215Z,8.80
2023-03-15T15:14:28.596Z,4.80
2023-03-15T15:16:21.953Z,8.60
2023-03-15T15:18:16.628Z,4.90
2023-03-15T15:20:13.051Z,6.30
2023-03-15T15:24:07.362Z,9.30
2023-03-15T15:26:03.580Z,5.60
2023-03-15T15:27:57.584Z,4.40
2023-03-15T15:29:51.117Z,3.50
2023-03-15T15:31:45.835Z,4.00
2023-03-15T15:33:38.885Z,4.10
2023-03-15T15:35:33.218Z,5.00
2023-03-15T15:37:26.699Z,5.00
2023-03-15T15:39:24.064Z,3.20
2023-03-15T15:41:26.198Z,3.50
2023-03-15T15:43:19.270Z,5.10
2023-03-15T15:45:15.478Z,4.60
2023-03-15T15:47:09.136Z,4.10
2023-03-15T15:49:02.394Z,4.70
2023-03-15T15:50:58.725Z,5.20
2023-03-15T15:52:53.207Z,5.50
2023-03-15T15:54:47.061Z,5.90
2023-03-15T15:56:48.313Z,5.70
2023-03-15T15:58:42.798Z,6.40
2023-03-15T16:00:39.508Z,8.40
2023-03-15T16:02:35.554Z,13.10
2023-03-15T16:04:29.495Z,9.70
2023-03-15T16:06:23.538Z,16.80
2023-03-15T16:08:23.022Z,19.20
2023-03-15T16:10:20.546Z,19.20
2023-03-15T16:12:15.421Z,18.30
2023-03-15T16:14:11.189Z,15.30
2023-03-15T16:16:04.445Z,14.70
2023-03-15T16:18:02.184Z,13.20
2023-03-15T16:19:55.644Z,12.60
2023-03-15T16:21:52.138Z,10.80
2023-03-15T16:23:50.753Z,8.80
2023-03-15T16:25:50.988Z,10.30
2023-03-15T16:27:48.119Z,11.00
2023-03-15T16:29:45.972Z,11.80
2023-03-15T16:31:39.378Z,11.50
2023-03-15T16:33:34.861Z,10.30
2023-03-15T16:35:34.802Z,10.10
2023-03-15T16:37:32.005Z,8.60
2023-03-15T16:39:25.266Z,9.30
2023-03-15T16:41:18.315Z,9.40
2023-03-15T16:43:13.832Z,10.40
2023-03-15T16:45:14.055Z,11.50
2023-03-15T16:47:08.462Z,13.80
2023-03-15T16:49:01.470Z,15.00
2023-03-15T16:50:55.552Z,16.50
2023-03-15T16:52:52.190Z,16.80
2023-03-15T16:54:47.539Z,19.00
2023-03-15T16:56:41.864Z,20.30
2023-03-15T16:58:35.087Z,22.40
2023-03-15T17:00:28.683Z,21.40
2023-03-15T17:02:27.979Z,20.80
2023-03-15T17:04:22.287Z,22.20
2023-03-15T17:06:23.251Z,21.20
2023-03-15T17:08:19.909Z,20.30
2023-03-15T17:10:29.411Z,20.30
2023-03-15T17:12:28.374Z,21.30
2023-03-15T17:14:34.160Z,22.80
2023-03-15T17:16:28.910Z,24.70
2023-03-15T17:18:24.777Z,25.60
2023-03-15T17:20:22.776Z,26.30
2023-03-15T17:22:17.998Z,28.60
2023-03-15T17:24:12.167Z,28.90
2023-03-15T17:26:10.638Z,30.50
2023-03-15T17:28:05.222Z,31.40
2023-03-15T17:29:58.526Z,35.00
2023-03-15T17:31:51.884Z,39.40
2023-03-15T17:33:45.569Z,40.50
2023-03-15T17:35:48.628Z,40.40
2023-03-15T17:37:45.234Z,40.40
2023-03-15T17:39:38.374Z,41.10
2023-03-15T17:41:34.714Z,42.90
2023-03-15T17:43:30.015Z,43.80
2023-03-15T17:45:30.031Z,43.40
2023-03-15T17:47:26.163Z,42.20
2023-03-15T17:49:24.692Z,42.60
2023-03-15T17:51:24.223Z,44.30
2023-03-15T17:53:20.503Z,44.00
2023-03-15T17:55:19.576Z,46.30
2023-03-15T17:57:13.655Z,50.10
2023-03-15T17:59:09.387Z,56.00
2023-03-15T18:01:04.490Z,66.10
2023-03-15T18:03:00.361Z,71.20
2023-03-15T18:04:53.705Z,80.70
2023-03-15T18:06:46.961Z,76.50
2023-03-15T18:08:40.319Z,67.10
2023-03-15T18:10:39.686Z,58.70
2023-03-15T18:12:33.186Z,57.60
2023-03-15T18:14:26.532Z,58.70
2023-03-15T18:16:19.813Z,58.30
2023-03-15T18:18:13.047Z,54.00
2023-03-15T18:20:11.407Z,50.80
2023-03-15T18:22:05.289Z,48.20
2023-03-15T18:23:58.548Z,46.60
2023-03-15T18:25:52.426Z,42.80
2023-03-15T18:27:46.084Z,42.20
2023-03-15T18:29:39.541Z,40.80
2023-03-15T18:31:35.150Z,39.40
2023-03-15T18:33:28.970Z,36.30
2023-03-15T18:35:27.219Z,33.80
2023-03-15T18:37:21.367Z,25.80
2023-03-15T18:39:14.572Z,21.60
2023-03-15T18:41:20.709Z,22.40
2023-03-15T18:43:15.266Z,21.20
2023-03-15T18:45:17.527Z,20.80
2023-03-15T18:47:11.206Z,21.40
2023-03-15T18:49:05.988Z,21.40
2023-03-15T18:50:59.344Z,22.90
2023-03-15T18:52:53.422Z,25.30
2023-03-15T18:54:46.672Z,27.30
2023-03-15T18:56:43.324Z,29.00
2023-03-15T18:58:38.800Z,31.00
2023-03-15T19:00:36.273Z,29.80
2023-03-15T19:02:29.685Z,32.20
2023-03-15T19:04:24.209Z,28.00
2023-03-15T19:06:18.529Z,28.90
2023-03-15T19:08:12.159Z,37.40
2023-03-15T19:10:08.906Z,39.20
2023-03-15T19:12:03.329Z,29.10
2023-03-15T19:13:56.329Z,32.20
2023-03-15T19:15:49.483Z,37.90
2023-03-15T19:17:47.857Z,61.50
2023-03-15T19:19:41.022Z,58.20
2023-03-15T19:21:34.068Z,84.70
2023-03-15T19:23:27.942Z,73.50
2023-03-15T19:25:21.396Z,71.70
2023-03-15T19:27:15.693Z,65.00
2023-03-15T19:29:08.847Z,56.00
2023-03-15T19:31:01.889Z,48.40
2023-03-15T19:32:56.251Z,48.90
2023-03-15T19:34:49.419Z,47.90
2023-03-15T19:36:42.767Z,49.40
2023-03-15T19:38:36.025Z,46.80
2023-03-15T19:40:29.492Z,39.70
2023-03-15T19:42:22.870Z,35.50
2023-03-15T19:44:15.991Z,34.40
2023-03-15T19:46:14.240Z,31.40
2023-03-15T19:48:07.629Z,31.80
2023-03-15T19:50:01.699Z,46.30
2023-03-15T19:51:54.746Z,48.20
2023-03-15T19:53:47.802Z,46.40
2023-03-15T19:55:41.842Z,44.50
2023-03-15T19:57:35.048Z,48.30
2023-03-15T19:59:28.081Z,57.60
2023-03-15T20:01:21.386Z,56.50
2023-03-15T20:03:14.484Z,59.90
2023-03-15T20:05:10.012Z,60.40
2023-03-15T20:07:03.556Z,59.60
2023-03-15T20:08:56.605Z,56.20
2023-03-15T20:10:59.077Z,52.50
2023-03-15T20:12:52.027Z,54.40
2023-03-15T20:14:45.077Z,71.00
2023-03-15T20:16:38.032Z,90.50
2023-03-15T20:18:31.591Z,91.40
2023-03-15T20:20:24.753Z,77.70
2023-03-15T20:22:17.897Z,57.30
2023-03-15T20:24:11.101Z,60.00
2023-03-15T20:26:06.728Z,55.40
2023-03-15T20:27:59.718Z,53.80
2023-03-15T20:29:56.508Z,57.30
2023-03-15T20:31:51.026Z,58.70
2023-03-15T20:33:47.671Z,58.30
2023-03-15T20:35:42.364Z,57.20
2023-03-15T20:37:42.177Z,53.80
2023-03-15T20:39:38.981Z,46.90
2023-03-15T20:41:39.515Z,38.40
2023-03-15T20:43:34.425Z,33.40
2023-03-15T20:45:34.188Z,31.10
2023-03-15T20:47:31.223Z,32.00
2023-03-15T20:49:24.763Z,33.60
2023-03-15T20:51:18.614Z,40.20
2023-03-15T20:53:11.659Z,41.90
2023-03-15T20:55:06.142Z,42.20
2023-03-15T20:56:59.087Z,41.00
2023-03-15T20:58:52.137Z,41.00
2023-03-15T21:00:46.189Z,40.50
2023-03-15T21:02:41.045Z,40.50
2023-03-15T21:04:34.477Z,42.70
2023-03-15T21:06:29.012Z,43.70
2023-03-15T21:08:30.042Z,43.90
2023-03-15T21:10:27.302Z,38.40
2023-03-15T21:12:22.711Z,35.90
2023-03-15T21:14:25.812Z,36.70
2023-03-15T21:16:25.636Z,38.90
2023-03-15T21:18:23.090Z,34.20
2023-03-15T21:20:18.803Z,32.80
2023-03-15T21:22:12.053Z,33.60
2023-03-15T21:24:06.416Z,35.10
2023-03-15T21:26:03.257Z,35.60
2023-03-15T21:27:56.631Z,35.70
2023-03-15T21:29:49.577Z,40.40
2023-03-15T21:31:42.686Z,37.20
2023-03-15T21:33:36.108Z,38.10
2023-03-15T21:35:29.180Z,37.10
2023-03-15T21:37:22.290Z,35.50
2023-03-15T21:39:15.339Z,33.60
2023-03-15T21:41:10.232Z,37.20
2023-03-15T21:43:03.186Z,35.20
2023-03-15T21:44:56.232Z,33.70
2023-03-15T21:46:49.242Z,33.90
2023-03-15T21:48:42.390Z,32.60
2023-03-15T21:50:36.631Z,35.40
2023-03-15T21:52:29.660Z,33.70
2023-03-15T21:54:22.903Z,36.20
2023-03-15T21:56:18.118Z,35.80
2023-03-15T21:58:11.904Z,35.40
2023-03-15T22:00:11.950Z,38.40
2023-03-15T22:02:10.644Z,37.90
2023-03-15T22:06:26.763Z,36.10
2023-03-15T22:08:58.076Z,35.70
2023-03-15T22:11:03.071Z,36.40
2023-03-15T22:13:23.978Z,37.50
2023-03-15T22:15:31.221Z,35.20
2023-03-15T22:17:24.304Z,36.60
2023-03-15T22:19:17.858Z,38.50
2023-03-15T22:21:11.408Z,38.10
2023-03-15T22:23:05.608Z,36.70
2023-03-15T22:24:58.559Z,36.50
2023-03-15T22:26:53.240Z,37.00
2023-03-15T22:28:46.203Z,35.90
2023-03-15T22:30:39.573Z,35.80
2023-03-15T22:32:32.827Z,36.50
2023-03-15T22:34:27.804Z,35.10
2023-03-15T22:36:20.854Z,36.00
2023-03-15T22:38:13.912Z,36.40
2023-03-15T22:40:07.755Z,36.10
2023-03-15T22:42:00.759Z,36.60
2023-03-15T22:43:55.309Z,35.70
2023-03-15T22:45:48.371Z,36.40
2023-03-15T22:47:41.626Z,35.30
2023-03-15T22:49:34.771Z,34.50
2023-03-15T22:51:27.825Z,34.50
2023-03-15T22:53:20.879Z,33.80
2023-03-15T22:55:14.560Z,32.60
2023-03-15T22:57:08.100Z,32.30
2023-03-15T22:59:01.281Z,31.70
2023-03-15T23:00:55.672Z,30.80
2023-03-15T23:02:49.726Z,30.10
2023-03-15T23:04:45.347Z,30.40
2023-03-15T23:06:38.444Z,32.60
2023-03-15T23:08:31.424Z,34.10
2023-03-15T23:10:24.992Z,32.80
2023-03-15T23:12:21.897Z,34.10
2023-03-15T23:14:17.439Z,34.70
2023-03-15T23:16:10.565Z,36.10
2023-03-15T23:18:05.370Z,35.20
2023-03-15T23:19:58.638Z,34.20
2023-03-15T23:21:51.594Z,32.40
2023-03-15T23:23:44.642Z,31.30
2023-03-15T23:25:39.222Z,26.40
2023-03-15T23:27:32.277Z,25.20
2023-03-15T23:29:25.222Z,24.00
2023-03-15T23:31:18.716Z,23.30
2023-03-15T23:33:11.864Z,22.30
2023-03-15T23:35:07.615Z,21.90
2023-03-15T23:37:00.706Z,20.60
2023-03-15T23:38:53.851Z,21.10
2023-03-15T23:40:54.023Z,18.90
2023-03-15T23:42:47.386Z,18.90
2023-03-15T23:44:40.486Z,18.50
2023-03-15T23:46:36.410Z,17.40
2023-03-15T23:48:30.069Z,16.50
2023-03-15T23:50:26.234Z,15.70
2023-03-15T23:52:19.867Z,14.90
2023-03-15T23:54:12.910Z,12.80
2023-03-15T23:56:06.469Z,13.40
2023-03-15T23:57:59.734Z,12.40
2023-03-15T23:59:53.553Z,11.40
